createdAt,value
2022-11-22T00:00:01.682Z,-2.1
2022-11-22T00:01:01.440Z,-2.1
2022-11-22T00:02:01.233Z,-2.1
2022-11-22T00:03:01.043Z,-2.1
2022-11-22T00:04:01.054Z,-2.1
2022-11-22T00:05:01.051Z,-2.1
2022-11-22T00:06:01.061Z,-2.1
2022-11-22T00:07:00.618Z,-2.1
2022-11-22T00:08:00.169Z,-2.1
2022-11-22T00:08:59.818Z,-2.1
2022-11-22T00:10:01.431Z,-2.1
2022-11-22T00:11:02.579Z,-2.2
2022-11-22T00:12:01.890Z,-2.2
2022-11-22T00:13:01.709Z,-2.2
2022-11-22T00:14:01.057Z,-2.2
2022-11-22T00:15:01.063Z,-2.2
2022-11-22T00:16:05.411Z,-2.1
2022-11-22T00:17:01.883Z,-2.1
2022-11-22T00:18:01.077Z,-2.1
2022-11-22T00:19:00.597Z,-2.1
2022-11-22T00:20:00.216Z,-2.1
2022-11-22T00:21:07.473Z,-2.1
2022-11-22T00:22:02.520Z,-2.1
2022-11-22T00:23:04.181Z,-2.1
2022-11-22T00:24:01.686Z,-2.1
2022-11-22T00:25:01.154Z,-2.1
2022-11-22T00:26:11.128Z,-2.1
2022-11-22T00:27:01.467Z,-2.1
2022-11-22T00:28:01.154Z,-2.1
2022-11-22T00:29:01.317Z,-2.1
2022-11-22T00:30:01.046Z,-2.1
2022-11-22T00:31:14.092Z,-2.1
2022-11-22T00:32:01.116Z,-2.1
2022-11-22T00:33:01.099Z,-2.2
2022-11-22T00:34:01.056Z,-2.2
2022-11-22T00:35:01.054Z,-2.2
2022-11-22T00:36:17.259Z,-2.2
2022-11-22T00:37:02.168Z,-2.2
2022-11-22T00:38:01.135Z,-2.2
2022-11-22T00:39:01.040Z,-2.2
2022-11-22T00:40:01.054Z,-2.2
2022-11-22T00:41:01.102Z,-2.2
2022-11-22T00:42:01.072Z,-2.2
2022-11-22T00:43:01.058Z,-2.2
2022-11-22T00:44:01.048Z,-2.2
2022-11-22T00:45:01.450Z,-2.2
2022-11-22T00:46:01.166Z,-2.2
2022-11-22T00:47:01.051Z,-2.2
2022-11-22T00:48:03.714Z,-2.2
2022-11-22T00:49:01.841Z,-2.2
2022-11-22T00:50:01.801Z,-2.3
2022-11-22T00:51:01.695Z,-2.3
2022-11-22T00:52:01.051Z,-2.3
2022-11-22T00:53:01.081Z,-2.3
2022-11-22T00:54:01.054Z,-2.3
2022-11-22T00:55:01.179Z,-2.2
2022-11-22T00:56:01.449Z,-2.3
2022-11-22T00:57:01.059Z,-2.3
2022-11-22T00:58:01.062Z,-2.2
2022-11-22T00:59:01.062Z,-2.3
2022-11-22T01:00:01.045Z,-2.2
2022-11-22T01:01:01.131Z,-2.3
2022-11-22T01:02:01.103Z,-2.3
2022-11-22T01:03:01.053Z,-2.3
2022-11-22T01:04:01.065Z,-2.3
2022-11-22T01:05:01.298Z,-2.3
2022-11-22T01:06:01.306Z,-2.3
2022-11-22T01:07:01.166Z,-2.3
2022-11-22T01:08:02.907Z,-2.2
2022-11-22T01:09:01.377Z,-2.3
2022-11-22T01:10:01.050Z,-2.3
2022-11-22T01:11:01.058Z,-2.3
2022-11-22T01:12:01.153Z,-2.3
2022-11-22T01:13:01.075Z,-2.3
2022-11-22T01:14:00.696Z,-2.3
2022-11-22T01:15:00.308Z,-2.3
2022-11-22T01:15:59.943Z,-2.3
2022-11-22T01:16:59.582Z,-2.3
2022-11-22T01:18:01.749Z,-2.3
2022-11-22T01:19:01.263Z,-2.3
2022-11-22T01:20:04.242Z,-2.3
2022-11-22T01:21:01.867Z,-2.3
2022-11-22T01:22:01.048Z,-2.3
2022-11-22T01:23:01.434Z,-2.3
2022-11-22T01:24:01.055Z,-2.3
2022-11-22T01:25:01.042Z,-2.3
2022-11-22T01:26:03.780Z,-2.3
2022-11-22T01:27:01.053Z,-2.3
2022-11-22T01:28:01.084Z,-2.3
2022-11-22T01:29:01.725Z,-2.3
2022-11-22T01:30:01.178Z,-2.3
2022-11-22T01:31:02.141Z,-2.3
2022-11-22T01:32:01.059Z,-2.3
2022-11-22T01:33:01.087Z,-2.3
2022-11-22T01:34:01.188Z,-2.3
2022-11-22T01:35:01.052Z,-2.3
2022-11-22T01:36:01.047Z,-2.3
2022-11-22T01:37:01.170Z,-2.3
2022-11-22T01:38:01.039Z,-2.3
2022-11-22T01:39:01.045Z,-2.3
2022-11-22T01:40:01.227Z,-2.3
2022-11-22T01:41:01.247Z,-2.3
2022-11-22T01:42:01.076Z,-2.3
2022-11-22T01:43:01.080Z,-2.3
2022-11-22T01:44:01.779Z,-2.3
2022-11-22T01:45:01.362Z,-2.3
2022-11-22T01:46:01.585Z,-2.3
2022-11-22T01:47:01.819Z,-2.3
2022-11-22T01:48:01.210Z,-2.3
2022-11-22T01:49:02.483Z,-2.3
2022-11-22T01:50:01.690Z,-2.3
2022-11-22T01:51:01.040Z,-2.3
2022-11-22T01:52:01.237Z,-2.3
2022-11-22T01:53:01.439Z,-2.3
2022-11-22T01:54:01.047Z,-2.4
2022-11-22T01:55:01.059Z,-2.3
2022-11-22T01:56:01.093Z,-2.3
2022-11-22T01:57:01.046Z,-2.4
2022-11-22T01:58:01.087Z,-2.4
2022-11-22T01:59:01.264Z,-2.4
2022-11-22T02:00:01.339Z,-2.3
2022-11-22T02:01:01.424Z,-2.3
2022-11-22T02:02:06.875Z,-2.4
2022-11-22T02:03:02.082Z,-2.4
2022-11-22T02:04:04.589Z,-2.4
2022-11-22T02:05:01.048Z,-2.3
2022-11-22T02:06:01.076Z,-2.3
2022-11-22T02:07:10.396Z,-2.3
2022-11-22T02:08:01.055Z,-2.3
2022-11-22T02:09:01.075Z,-2.4
2022-11-22T02:10:01.444Z,-2.4
2022-11-22T02:11:04.343Z,-2.4
2022-11-22T02:12:12.589Z,-2.4
2022-11-22T02:13:02.827Z,-2.4
2022-11-22T02:14:02.347Z,-2.4
2022-11-22T02:15:02.530Z,-2.4
2022-11-22T02:16:01.062Z,-2.4
2022-11-22T02:17:16.016Z,-2.4
2022-11-22T02:18:02.514Z,-2.4
2022-11-22T02:19:01.177Z,-2.4
2022-11-22T02:20:02.255Z,-2.5
2022-11-22T02:21:07.940Z,-2.5
2022-11-22T02:22:01.909Z,-2.5
2022-11-22T02:23:01.049Z,-2.5
2022-11-22T02:24:01.060Z,-2.5
2022-11-22T02:25:01.083Z,-2.5
2022-11-22T02:26:01.048Z,-2.5
2022-11-22T02:27:01.249Z,-2.5
2022-11-22T02:28:01.044Z,-2.5
2022-11-22T02:29:01.049Z,-2.5
2022-11-22T02:30:01.064Z,-2.5
2022-11-22T02:31:01.037Z,-2.5
2022-11-22T02:32:01.067Z,-2.5
2022-11-22T02:33:01.192Z,-2.5
2022-11-22T02:34:01.932Z,-2.5
2022-11-22T02:35:01.776Z,-2.5
2022-11-22T02:36:01.053Z,-2.5
2022-11-22T02:37:01.057Z,-2.5
2022-11-22T02:38:01.088Z,-2.5
2022-11-22T02:39:01.048Z,-2.5
2022-11-22T02:40:01.093Z,-2.5
2022-11-22T02:41:01.423Z,-2.5
2022-11-22T02:42:02.085Z,-2.5
2022-11-22T02:43:02.029Z,-2.5
2022-11-22T02:44:01.072Z,-2.5
2022-11-22T02:45:01.258Z,-2.5
2022-11-22T02:46:01.784Z,-2.5
2022-11-22T02:47:01.062Z,-2.5
2022-11-22T02:48:01.042Z,-2.5
2022-11-22T02:49:01.054Z,-2.5
2022-11-22T02:50:01.041Z,-2.5
2022-11-22T02:51:01.095Z,-2.5
2022-11-22T02:52:01.075Z,-2.5
2022-11-22T02:53:01.089Z,-2.5
2022-11-22T02:54:01.485Z,-2.5
2022-11-22T02:55:01.063Z,-2.5
2022-11-22T02:56:01.065Z,-2.5
2022-11-22T02:57:01.333Z,-2.5
2022-11-22T02:58:01.076Z,-2.5
2022-11-22T02:59:00.668Z,-2.5
2022-11-22T03:00:00.255Z,-2.4
2022-11-22T03:00:59.871Z,-2.4
2022-11-22T03:02:03.206Z,-2.4
2022-11-22T03:03:01.045Z,-2.4
2022-11-22T03:04:01.800Z,-2.3
2022-11-22T03:05:00.697Z,-2.4
2022-11-22T03:06:00.266Z,-2.4
2022-11-22T03:06:59.861Z,-2.3
2022-11-22T03:08:03.215Z,-2.3
2022-11-22T03:09:01.445Z,-2.3
2022-11-22T03:10:01.042Z,-2.3
2022-11-22T03:11:01.143Z,-2.3
2022-11-22T03:12:01.067Z,-2.3
2022-11-22T03:13:00.783Z,-2.3
2022-11-22T03:14:00.444Z,-2.3
2022-11-22T03:15:00.094Z,-2.3
2022-11-22T03:15:59.742Z,-2.3
2022-11-22T03:17:01.710Z,-2.3
2022-11-22T03:18:02.322Z,-2.2
2022-11-22T03:19:01.688Z,-2.3
2022-11-22T03:20:02.024Z,-2.2
2022-11-22T03:21:01.351Z,-2.2
2022-11-22T03:22:02.264Z,-2.2
2022-11-22T03:23:01.949Z,-2.2
2022-11-22T03:24:03.311Z,-2.2
2022-11-22T03:25:01.436Z,-2.2
2022-11-22T03:26:02.700Z,-2.2
2022-11-22T03:27:01.052Z,-2.1
2022-11-22T03:28:01.073Z,-2.1
2022-11-22T03:29:01.062Z,-2.1
2022-11-22T03:30:01.088Z,-2.1
2022-11-22T03:31:01.072Z,-2.1
2022-11-22T03:32:01.099Z,-2.1
2022-11-22T03:33:01.082Z,-2.1
2022-11-22T03:34:01.297Z,-2.1
2022-11-22T03:35:01.284Z,-2.1
2022-11-22T03:36:02.045Z,-2.1
2022-11-22T03:37:01.450Z,-2.1
2022-11-22T03:38:02.827Z,-2.1
2022-11-22T03:39:01.044Z,-2.1
2022-11-22T03:40:01.049Z,-2
2022-11-22T03:41:01.054Z,-2.1
2022-11-22T03:42:01.055Z,-2
2022-11-22T03:43:04.899Z,-2
2022-11-22T03:44:00.648Z,-2.1
2022-11-22T03:45:00.216Z,-2.1
2022-11-22T03:45:59.764Z,-2
2022-11-22T03:47:01.843Z,-2
2022-11-22T03:48:08.551Z,-2
2022-11-22T03:49:01.688Z,-2
2022-11-22T03:50:01.228Z,-2
2022-11-22T03:51:02.492Z,-2
2022-11-22T03:52:01.714Z,-2
2022-11-22T03:53:10.674Z,-2
2022-11-22T03:54:01.311Z,-2
2022-11-22T03:55:02.219Z,-2
2022-11-22T03:56:02.919Z,-2
2022-11-22T03:57:01.068Z,-2
2022-11-22T03:58:14.296Z,-2
2022-11-22T03:59:01.069Z,-2
2022-11-22T04:00:01.570Z,-2
2022-11-22T04:01:01.134Z,-2
2022-11-22T04:02:02.466Z,-2
2022-11-22T04:03:16.435Z,-2
2022-11-22T04:04:01.431Z,-2
2022-11-22T04:05:01.071Z,-2
2022-11-22T04:06:01.159Z,-2
2022-11-22T04:07:01.073Z,-2
2022-11-22T04:08:01.053Z,-2
2022-11-22T04:09:01.161Z,-2
2022-11-22T04:10:01.200Z,-2
2022-11-22T04:11:01.279Z,-2
2022-11-22T04:12:01.450Z,-2
2022-11-22T04:13:01.056Z,-1.9
2022-11-22T04:14:01.068Z,-1.9
2022-11-22T04:15:01.047Z,-1.9
2022-11-22T04:16:01.044Z,-2
2022-11-22T04:17:01.074Z,-1.9
2022-11-22T04:18:01.045Z,-1.9
2022-11-22T04:19:01.208Z,-1.9
2022-11-22T04:20:01.430Z,-1.9
2022-11-22T04:21:01.153Z,-1.9
2022-11-22T04:22:01.075Z,-1.9
2022-11-22T04:23:01.077Z,-1.9
2022-11-22T04:24:01.058Z,-1.9
2022-11-22T04:25:01.087Z,-1.9
2022-11-22T04:26:01.171Z,-1.9
2022-11-22T04:27:01.082Z,-1.8
2022-11-22T04:28:01.048Z,-1.9
2022-11-22T04:29:09.802Z,-1.8
2022-11-22T04:30:01.059Z,-1.8
2022-11-22T04:31:01.041Z,-1.8
2022-11-22T04:32:01.070Z,-1.8
2022-11-22T04:33:01.052Z,-1.8
2022-11-22T04:34:01.708Z,-1.8
2022-11-22T04:35:01.728Z,-1.8
2022-11-22T04:36:01.819Z,-1.8
2022-11-22T04:37:01.790Z,-1.8
2022-11-22T04:38:01.041Z,-1.8
2022-11-22T04:39:00.634Z,-1.8
2022-11-22T04:40:00.275Z,-1.8
2022-11-22T04:40:59.913Z,-1.8
2022-11-22T04:41:59.770Z,-1.8
2022-11-22T04:43:01.722Z,-1.8
2022-11-22T04:44:01.554Z,-1.8
2022-11-22T04:45:01.184Z,-1.8
2022-11-22T04:46:01.076Z,-1.7
2022-11-22T04:47:01.058Z,-1.7
2022-11-22T04:48:01.046Z,-1.7
2022-11-22T04:49:01.059Z,-1.7
2022-11-22T04:50:01.442Z,-1.7
2022-11-22T04:51:01.053Z,-1.7
2022-11-22T04:52:01.089Z,-1.7
2022-11-22T04:53:01.084Z,-1.7
2022-11-22T04:54:01.061Z,-1.7
2022-11-22T04:55:00.703Z,-1.7
2022-11-22T04:56:00.281Z,-1.7
2022-11-22T04:56:59.897Z,-1.7
2022-11-22T04:58:00.515Z,-1.6
2022-11-22T04:59:00.197Z,-1.6
2022-11-22T04:59:59.764Z,-1.6
2022-11-22T05:01:01.849Z,-1.6
2022-11-22T05:02:02.491Z,-1.6
2022-11-22T05:03:01.093Z,-1.6
2022-11-22T05:04:01.062Z,-1.6
2022-11-22T05:05:01.252Z,-1.6
2022-11-22T05:06:03.963Z,-1.6
2022-11-22T05:07:01.216Z,-1.6
2022-11-22T05:08:01.055Z,-1.6
2022-11-22T05:09:01.057Z,-1.6
2022-11-22T05:10:01.461Z,-1.6
2022-11-22T05:11:01.146Z,-1.5
2022-11-22T05:12:00.838Z,-1.6
2022-11-22T05:13:00.484Z,-1.5
2022-11-22T05:14:03.845Z,-1.5
2022-11-22T05:15:01.213Z,-1.5
2022-11-22T05:16:01.954Z,-1.5
2022-11-22T05:17:01.451Z,-1.5
2022-11-22T05:18:02.134Z,-1.5
2022-11-22T05:19:08.263Z,-1.5
2022-11-22T05:20:01.053Z,-1.5
2022-11-22T05:21:01.051Z,-1.5
2022-11-22T05:22:01.049Z,-1.5
2022-11-22T05:23:01.054Z,-1.5
2022-11-22T05:24:10.638Z,-1.5
2022-11-22T05:25:01.392Z,-1.5
2022-11-22T05:26:02.017Z,-1.5
2022-11-22T05:27:01.096Z,-1.5
2022-11-22T05:28:01.134Z,-1.5
2022-11-22T05:29:13.511Z,-1.4
2022-11-22T05:30:01.068Z,-1.5
2022-11-22T05:31:01.063Z,-1.4
2022-11-22T05:32:01.060Z,-1.4
2022-11-22T05:33:01.081Z,-1.4
2022-11-22T05:34:15.386Z,-1.4
2022-11-22T05:35:01.168Z,-1.4
2022-11-22T05:36:04.310Z,-1.4
2022-11-22T05:37:01.699Z,-1.4
2022-11-22T05:38:01.704Z,-1.4
2022-11-22T05:39:01.353Z,-1.4
2022-11-22T05:40:01.953Z,-1.4
2022-11-22T05:41:02.487Z,-1.3
2022-11-22T05:42:02.488Z,-1.3
2022-11-22T05:43:01.099Z,-1.3
2022-11-22T05:44:02.072Z,-1.3
2022-11-22T05:45:01.060Z,-1.3
2022-11-22T05:46:01.058Z,-1.3
2022-11-22T05:47:01.069Z,-1.3
2022-11-22T05:48:01.104Z,-1.3
2022-11-22T05:49:01.041Z,-1.3
2022-11-22T05:50:00.719Z,-1.3
2022-11-22T05:51:00.315Z,-1.3
2022-11-22T05:52:00.001Z,-1.3
2022-11-22T05:52:59.585Z,-1.3
2022-11-22T05:54:01.182Z,-1.3
2022-11-22T05:55:00.802Z,-1.3
2022-11-22T05:56:00.395Z,-1.3
2022-11-22T05:56:59.996Z,-1.2
2022-11-22T05:57:59.591Z,-1.3
2022-11-22T05:59:01.181Z,-1.3
2022-11-22T06:00:01.404Z,-1.2
2022-11-22T06:01:01.582Z,-1.2
2022-11-22T06:02:01.493Z,-1.2
2022-11-22T06:03:01.148Z,-1.2
2022-11-22T06:04:01.052Z,-1.2
2022-11-22T06:05:02.320Z,-1.2
2022-11-22T06:06:01.842Z,-1.2
2022-11-22T06:07:03.296Z,-1.2
2022-11-22T06:08:02.485Z,-1.1
2022-11-22T06:09:01.088Z,-1.1
2022-11-22T06:10:01.209Z,-1.1
2022-11-22T06:11:01.080Z,-1.1
2022-11-22T06:12:01.306Z,-1.1
2022-11-22T06:13:01.059Z,-1.1
2022-11-22T06:14:01.047Z,-1.1
2022-11-22T06:15:01.063Z,-1.1
2022-11-22T06:16:01.059Z,-1.1
2022-11-22T06:17:01.354Z,-1.1
2022-11-22T06:18:04.027Z,-1.1
2022-11-22T06:19:04.106Z,-1.1
2022-11-22T06:20:05.752Z,-1.1
2022-11-22T06:21:01.111Z,-1
2022-11-22T06:22:01.044Z,-1
2022-11-22T06:23:01.061Z,-1
2022-11-22T06:24:01.050Z,-1
2022-11-22T06:25:01.063Z,-1
2022-11-22T06:26:01.432Z,-1
2022-11-22T06:27:01.963Z,-1
2022-11-22T06:28:02.243Z,-1
2022-11-22T06:29:01.066Z,-1
2022-11-22T06:30:01.053Z,-1
2022-11-22T06:31:01.045Z,-1
2022-11-22T06:32:03.857Z,-1
2022-11-22T06:33:01.781Z,-1
2022-11-22T06:34:01.712Z,-1
2022-11-22T06:35:01.701Z,-0.9
2022-11-22T06:36:02.049Z,-0.9
2022-11-22T06:37:01.783Z,-0.9
2022-11-22T06:38:01.254Z,-0.9
2022-11-22T06:39:01.942Z,-0.9
2022-11-22T06:40:02.861Z,-0.9
2022-11-22T06:41:01.067Z,-0.9
2022-11-22T06:42:01.086Z,-0.9
2022-11-22T06:43:01.063Z,-0.9
2022-11-22T06:44:01.046Z,-0.8
2022-11-22T06:45:03.815Z,-0.8
2022-11-22T06:46:02.168Z,-0.8
2022-11-22T06:47:01.055Z,-0.8
2022-11-22T06:48:00.715Z,-0.8
2022-11-22T06:49:00.259Z,-0.8
2022-11-22T06:50:00.262Z,-0.8
2022-11-22T06:50:59.933Z,-0.8
2022-11-22T06:51:59.507Z,-0.8
2022-11-22T06:53:01.160Z,-0.8
2022-11-22T06:54:01.834Z,-0.8
2022-11-22T06:55:02.968Z,-0.8
2022-11-22T06:56:02.767Z,-0.8
2022-11-22T06:57:01.695Z,-0.8
2022-11-22T06:58:01.271Z,-0.7
2022-11-22T06:59:02.466Z,-0.7
2022-11-22T07:00:04.066Z,-0.7
2022-11-22T07:01:01.135Z,-0.7
2022-11-22T07:02:06.056Z,-0.7
2022-11-22T07:03:02.344Z,-0.6
2022-11-22T07:04:01.711Z,-0.6
2022-11-22T07:06:01.676Z,-0.6
2022-11-22T07:07:01.073Z,-0.6
2022-11-22T07:08:07.846Z,-0.6
2022-11-22T07:09:04.564Z,-0.6
2022-11-22T07:10:09.693Z,-0.6
2022-11-22T07:11:02.219Z,-0.6
2022-11-22T07:12:01.551Z,-0.5
2022-11-22T07:13:00.883Z,-0.5
2022-11-22T07:14:06.933Z,-0.5
2022-11-22T07:15:10.905Z,-0.5
2022-11-22T07:16:01.052Z,-0.5
2022-11-22T07:17:00.653Z,-0.5
2022-11-22T07:18:00.252Z,-0.5
2022-11-22T07:18:59.803Z,-0.5
2022-11-22T07:20:14.090Z,-0.5
2022-11-22T07:21:04.803Z,-0.5
2022-11-22T07:22:01.659Z,-0.5
2022-11-22T07:23:01.063Z,-0.5
2022-11-22T07:24:01.726Z,-0.5
2022-11-22T07:25:01.184Z,-0.5
2022-11-22T07:26:01.080Z,-0.5
2022-11-22T07:27:01.058Z,-0.5
2022-11-22T07:28:01.073Z,-0.5
2022-11-22T07:29:01.089Z,-0.5
2022-11-22T07:30:00.684Z,-0.4
2022-11-22T07:31:00.319Z,-0.4
2022-11-22T07:32:00.238Z,-0.4
2022-11-22T07:32:59.954Z,-0.4
2022-11-22T07:33:59.493Z,-0.4
2022-11-22T07:35:02.107Z,-0.4
2022-11-22T07:36:01.784Z,-0.4
2022-11-22T07:37:06.134Z,-0.3
2022-11-22T07:38:01.150Z,-0.3
2022-11-22T07:39:01.053Z,-0.3
2022-11-22T07:40:01.058Z,-0.3
2022-11-22T07:41:01.048Z,-0.3
2022-11-22T07:42:01.054Z,-0.3
2022-11-22T07:43:01.068Z,-0.3
2022-11-22T07:44:00.665Z,-0.3
2022-11-22T07:45:00.359Z,-0.3
2022-11-22T07:45:59.974Z,-0.3
2022-11-22T07:46:59.573Z,-0.2
2022-11-22T07:48:01.375Z,-0.3
2022-11-22T07:49:02.020Z,-0.2
2022-11-22T07:50:01.051Z,-0.2
2022-11-22T07:51:01.055Z,-0.2
2022-11-22T07:52:01.048Z,-0.2
2022-11-22T07:53:01.065Z,-0.2
2022-11-22T07:54:01.040Z,-0.1
2022-11-22T07:55:01.051Z,-0.1
2022-11-22T07:56:01.063Z,-0.1
2022-11-22T07:57:01.053Z,-0.1
2022-11-22T07:58:01.233Z,-0.1
2022-11-22T07:59:01.231Z,-0.1
2022-11-22T08:00:01.231Z,-0.1
2022-11-22T08:01:02.094Z,-0.1
2022-11-22T08:02:02.092Z,-0.1
2022-11-22T08:03:01.077Z,-0.1
2022-11-22T08:04:00.678Z,-0.1
2022-11-22T08:05:00.317Z,-0.1
2022-11-22T08:05:59.965Z,0
2022-11-22T08:06:59.624Z,0
2022-11-22T08:08:01.796Z,0
2022-11-22T08:09:02.433Z,0
2022-11-22T08:10:01.430Z,0
2022-11-22T08:11:02.827Z,0
2022-11-22T08:12:01.213Z,0
2022-11-22T08:13:01.870Z,0
2022-11-22T08:14:01.041Z,0
2022-11-22T08:15:01.049Z,0
2022-11-22T08:16:05.000Z,0
2022-11-22T08:17:01.572Z,0
2022-11-22T08:18:01.053Z,0
2022-11-22T08:19:01.073Z,0
2022-11-22T08:20:01.050Z,0
2022-11-22T08:21:01.052Z,0
2022-11-22T08:22:01.049Z,0
2022-11-22T08:23:01.055Z,0.1
2022-11-22T08:24:01.055Z,0.1
2022-11-22T08:25:01.076Z,0.1
2022-11-22T08:26:01.168Z,0.1
2022-11-22T08:27:02.229Z,0.1
2022-11-22T08:28:00.889Z,0.1
2022-11-22T08:29:01.061Z,0.1
2022-11-22T08:30:01.045Z,0.1
2022-11-22T08:31:01.045Z,0.1
2022-11-22T08:32:01.046Z,0.1
2022-11-22T08:33:01.075Z,0.1
2022-11-22T08:34:01.067Z,0.1
2022-11-22T08:35:01.353Z,0.2
2022-11-22T08:36:01.172Z,0.2
2022-11-22T08:37:01.046Z,0.2
2022-11-22T08:38:01.056Z,0.2
2022-11-22T08:39:01.255Z,0.3
2022-11-22T08:40:01.043Z,0.3
2022-11-22T08:41:01.060Z,0.3
2022-11-22T08:42:01.053Z,0.3
2022-11-22T08:43:01.046Z,0.3
2022-11-22T08:44:01.334Z,0.3
2022-11-22T08:45:01.352Z,0.3
2022-11-22T08:46:02.203Z,0.3
2022-11-22T08:47:01.788Z,0.3
2022-11-22T08:48:01.524Z,0.3
2022-11-22T08:49:01.129Z,0.3
2022-11-22T08:50:01.067Z,0.3
2022-11-22T08:51:01.049Z,0.3
2022-11-22T08:52:01.049Z,0.3
2022-11-22T08:53:01.342Z,0.3
2022-11-22T08:54:04.013Z,0.3
2022-11-22T08:55:04.558Z,0.4
2022-11-22T08:56:03.129Z,0.3
2022-11-22T08:57:01.046Z,0.3
2022-11-22T08:58:01.054Z,0.4
2022-11-22T08:59:01.067Z,0.4
2022-11-22T09:00:01.059Z,0.4
2022-11-22T09:01:05.569Z,0.4
2022-11-22T09:02:01.540Z,0.4
2022-11-22T09:03:01.449Z,0.4
2022-11-22T09:04:02.159Z,0.4
2022-11-22T09:05:01.043Z,0.4
2022-11-22T09:10:01.708Z,0.5
2022-11-22T09:11:10.512Z,0.5
2022-11-22T09:12:02.063Z,0.5
2022-11-22T09:13:02.066Z,0.5
2022-11-22T09:14:02.055Z,0.5
2022-11-22T09:15:01.056Z,0.5
2022-11-22T09:16:13.665Z,0.5
2022-11-22T09:17:01.045Z,0.5
2022-11-22T09:18:01.053Z,0.5
2022-11-22T09:19:01.089Z,0.5
2022-11-22T09:20:01.069Z,0.5
2022-11-22T09:21:15.262Z,0.5
2022-11-22T09:22:01.340Z,0.5
2022-11-22T09:23:01.823Z,0.5
2022-11-22T09:24:02.038Z,0.5
2022-11-22T09:25:02.412Z,0.5
2022-11-22T09:26:01.627Z,0.5
2022-11-22T09:27:01.683Z,0.6
2022-11-22T09:28:01.392Z,0.6
2022-11-22T09:29:02.479Z,0.6
2022-11-22T09:30:01.965Z,0.6
2022-11-22T09:31:01.056Z,0.6
2022-11-22T09:32:00.574Z,0.6
2022-11-22T09:33:00.137Z,0.6
2022-11-22T09:33:59.685Z,0.6
2022-11-22T09:35:01.390Z,0.6
2022-11-22T09:36:04.100Z,0.6
2022-11-22T09:37:02.311Z,0.6
2022-11-22T09:38:01.061Z,0.6
2022-11-22T09:39:01.135Z,0.6
2022-11-22T09:40:01.147Z,0.6
2022-11-22T09:41:01.039Z,0.6
2022-11-22T09:42:01.430Z,0.6
2022-11-22T09:43:01.063Z,0.6
2022-11-22T09:44:01.058Z,0.6
2022-11-22T09:45:01.061Z,0.6
2022-11-22T09:46:01.046Z,0.7
2022-11-22T09:47:01.222Z,0.7
2022-11-22T09:48:04.219Z,0.7
2022-11-22T09:49:02.476Z,0.7
2022-11-22T09:50:01.979Z,0.7
2022-11-22T09:51:02.481Z,0.7
2022-11-22T09:52:01.804Z,0.7
2022-11-22T09:53:01.063Z,0.7
2022-11-22T09:54:00.437Z,0.8
2022-11-22T09:54:59.992Z,0.8
2022-11-22T09:55:59.584Z,0.8
2022-11-22T09:57:01.160Z,0.8
2022-11-22T09:58:01.062Z,0.8
2022-11-22T09:59:01.437Z,0.8
2022-11-22T10:00:01.045Z,0.8
2022-11-22T10:01:01.220Z,0.8
2022-11-22T10:02:16.962Z,0.8
2022-11-22T10:03:01.312Z,0.8
2022-11-22T10:04:02.351Z,0.8
2022-11-22T10:05:01.959Z,0.8
2022-11-22T10:06:01.836Z,0.8
2022-11-22T10:07:01.734Z,0.8
2022-11-22T10:08:01.950Z,0.8
2022-11-22T10:09:01.849Z,0.8
2022-11-22T10:10:01.857Z,0.8
2022-11-22T10:11:01.743Z,0.8
2022-11-22T10:12:00.672Z,0.8
2022-11-22T10:13:00.247Z,0.8
2022-11-22T10:13:59.983Z,0.8
2022-11-22T10:14:59.666Z,0.9
2022-11-22T10:16:01.263Z,0.9
2022-11-22T10:17:01.859Z,0.9
2022-11-22T10:18:01.442Z,0.9
2022-11-22T10:19:02.725Z,0.9
2022-11-22T10:20:02.711Z,1
2022-11-22T10:21:01.684Z,1
2022-11-22T10:22:01.260Z,0.9
2022-11-22T10:23:01.043Z,0.9
2022-11-22T10:24:01.085Z,1
2022-11-22T10:25:01.050Z,1
2022-11-22T10:26:00.598Z,1
2022-11-22T10:27:00.239Z,1
2022-11-22T10:28:00.941Z,1
2022-11-22T10:29:01.887Z,1
2022-11-22T10:30:02.728Z,1
2022-11-22T10:31:01.047Z,1.1
2022-11-22T10:32:00.672Z,1.1
2022-11-22T10:33:00.218Z,1
2022-11-22T10:34:00.097Z,1
2022-11-22T10:34:59.757Z,1.1
2022-11-22T10:36:01.342Z,1.1
2022-11-22T10:37:01.445Z,1.1
2022-11-22T10:38:01.084Z,1.1
2022-11-22T10:39:01.067Z,1.1
2022-11-22T10:40:01.055Z,1.1
2022-11-22T10:41:01.059Z,1.1
2022-11-22T10:42:00.736Z,1.1
2022-11-22T10:43:00.272Z,1.1
2022-11-22T10:43:59.844Z,1.1
2022-11-22T10:45:01.398Z,1.1
2022-11-22T10:46:02.115Z,1.2
2022-11-22T10:47:02.435Z,1.2
2022-11-22T10:48:01.065Z,1.2
2022-11-22T10:49:01.063Z,1.2
2022-11-22T10:50:01.042Z,1.2
2022-11-22T10:51:01.074Z,1.2
2022-11-22T10:52:04.497Z,1.2
2022-11-22T10:53:01.713Z,1.2
2022-11-22T10:54:03.698Z,1.2
2022-11-22T10:55:02.461Z,1.2
2022-11-22T10:56:01.042Z,1.2
2022-11-22T10:57:09.030Z,1.2
2022-11-22T10:58:01.153Z,1.2
2022-11-22T10:59:01.457Z,1.2
2022-11-22T11:00:01.062Z,1.2
2022-11-22T11:01:01.109Z,1.2
2022-11-22T11:02:10.614Z,1.2
2022-11-22T11:03:01.241Z,1.2
2022-11-22T11:04:02.254Z,1.2
2022-11-22T11:05:03.956Z,1.3
2022-11-22T11:06:21.697Z,1.3
2022-11-22T11:07:12.744Z,1.3
2022-11-22T11:08:22.248Z,1.3
2022-11-22T11:09:54.956Z,1.3
2022-11-22T11:10:11.484Z,1.3
2022-11-22T11:11:01.051Z,1.4
2022-11-22T11:12:16.240Z,1.4
2022-11-22T11:13:01.463Z,1.4
2022-11-22T11:14:01.065Z,1.4
2022-11-22T11:15:01.061Z,1.4
2022-11-22T11:16:01.073Z,1.4
2022-11-22T11:17:01.043Z,1.4
2022-11-22T11:18:01.104Z,1.5
2022-11-22T11:19:01.070Z,1.5
2022-11-22T11:20:01.048Z,1.5
2022-11-22T11:21:01.476Z,1.5
2022-11-22T11:22:01.154Z,1.5
2022-11-22T11:23:16.759Z,1.5
2022-11-22T11:24:01.060Z,1.5
2022-11-22T11:25:01.052Z,1.5
2022-11-22T11:26:01.043Z,1.5
2022-11-22T11:27:00.651Z,1.5
2022-11-22T11:28:00.288Z,1.5
2022-11-22T11:28:59.906Z,1.5
2022-11-22T11:29:59.468Z,1.5
2022-11-22T11:31:01.175Z,1.5
2022-11-22T11:32:02.057Z,1.5
2022-11-22T11:33:01.043Z,1.5
2022-11-22T11:34:01.079Z,1.5
2022-11-22T11:35:01.153Z,1.6
2022-11-22T11:36:01.705Z,1.6
2022-11-22T11:37:00.772Z,1.6
2022-11-22T11:38:00.379Z,1.6
2022-11-22T11:38:59.991Z,1.6
2022-11-22T11:39:59.587Z,1.6
2022-11-22T11:41:01.702Z,1.6
2022-11-22T11:42:01.638Z,1.6
2022-11-22T11:43:01.206Z,1.6
2022-11-22T11:44:01.793Z,1.6
2022-11-22T11:45:01.218Z,1.7
2022-11-22T11:46:01.227Z,1.7
2022-11-22T11:47:00.719Z,1.7
2022-11-22T11:48:00.362Z,1.8
2022-11-22T11:48:59.937Z,1.8
2022-11-22T11:49:59.523Z,1.8
2022-11-22T11:51:01.075Z,1.8
2022-11-22T11:52:01.048Z,1.8
2022-11-22T11:53:01.070Z,1.8
2022-11-22T11:54:02.371Z,1.8
2022-11-22T11:55:01.757Z,1.8
2022-11-22T11:56:02.238Z,1.8
2022-11-22T11:57:01.050Z,1.8
2022-11-22T11:58:01.068Z,1.8
2022-11-22T11:59:01.049Z,1.8
2022-11-22T12:00:01.045Z,1.8
2022-11-22T12:01:01.047Z,1.8
2022-11-22T12:02:01.204Z,1.8
2022-11-22T12:03:02.040Z,1.8
2022-11-22T12:04:03.956Z,1.8
2022-11-22T12:05:01.065Z,1.8
2022-11-22T12:06:01.047Z,1.8
2022-11-22T12:07:03.348Z,1.8
2022-11-22T12:08:00.834Z,1.8
2022-11-22T12:09:01.052Z,1.8
2022-11-22T12:10:01.121Z,1.8
2022-11-22T12:11:01.167Z,1.8
2022-11-22T12:12:01.448Z,1.8
2022-11-22T12:13:04.374Z,1.8
2022-11-22T12:15:11.335Z,1.8
2022-11-22T12:16:01.047Z,1.8
2022-11-22T12:17:01.058Z,1.8
2022-11-22T12:18:01.060Z,1.8
2022-11-22T12:19:01.449Z,1.8
2022-11-22T12:20:03.824Z,1.8
2022-11-22T12:21:01.264Z,1.8
2022-11-22T12:22:01.876Z,1.8
2022-11-22T12:23:01.872Z,1.8
2022-11-22T12:24:19.871Z,1.8
2022-11-22T12:25:24.772Z,1.8
2022-11-22T12:26:02.686Z,1.8
2022-11-22T12:27:02.083Z,1.8
2022-11-22T12:28:03.488Z,1.8
2022-11-22T12:29:04.200Z,1.8
2022-11-22T12:30:01.040Z,1.8
2022-11-22T12:31:01.054Z,1.8
2022-11-22T12:32:01.048Z,1.8
2022-11-22T12:33:05.036Z,1.8
2022-11-22T12:34:02.498Z,1.8
2022-11-22T12:35:01.062Z,1.8
2022-11-22T12:36:01.057Z,1.8
2022-11-22T12:37:01.060Z,1.8
2022-11-22T12:38:09.260Z,1.8
2022-11-22T12:39:01.056Z,1.9
2022-11-22T12:40:01.075Z,1.9
2022-11-22T12:41:01.198Z,1.9
2022-11-22T12:42:00.873Z,1.9
2022-11-22T12:43:12.166Z,1.9
2022-11-22T12:44:01.070Z,1.9
2022-11-22T12:45:01.041Z,1.9
2022-11-22T12:46:01.080Z,1.9
2022-11-22T12:47:01.043Z,1.9
2022-11-22T12:48:14.087Z,1.9
2022-11-22T12:49:01.040Z,1.9
2022-11-22T12:50:01.043Z,1.9
2022-11-22T12:51:01.061Z,1.9
2022-11-22T12:52:01.050Z,1.9
2022-11-22T12:53:16.411Z,1.9
2022-11-22T12:54:01.062Z,1.9
2022-11-22T12:55:01.709Z,1.8
2022-11-22T12:56:01.059Z,1.8
2022-11-22T12:57:01.704Z,1.8
2022-11-22T12:58:01.942Z,1.8
2022-11-22T12:59:01.322Z,1.8
2022-11-22T13:00:01.168Z,1.8
2022-11-22T13:01:01.489Z,1.8
2022-11-22T13:02:01.576Z,1.8
2022-11-22T13:03:01.313Z,1.8
2022-11-22T13:04:03.002Z,1.8
2022-11-22T13:05:02.027Z,1.8
2022-11-22T13:06:01.793Z,1.8
2022-11-22T13:07:02.062Z,1.8
2022-11-22T13:08:02.504Z,1.8
2022-11-22T13:09:04.053Z,1.9
2022-11-22T13:10:01.953Z,1.8
2022-11-22T13:11:01.548Z,1.9
2022-11-22T13:12:01.213Z,1.8
2022-11-22T13:13:01.974Z,1.9
2022-11-22T13:14:01.073Z,1.8
2022-11-22T13:15:01.061Z,1.8
2022-11-22T13:16:01.104Z,1.8
2022-11-22T13:17:01.146Z,1.8
2022-11-22T13:18:01.100Z,1.8
2022-11-22T13:19:01.187Z,1.8
2022-11-22T13:20:01.113Z,1.8
2022-11-22T13:21:03.860Z,1.8
2022-11-22T13:22:01.712Z,1.8
2022-11-22T13:23:02.681Z,1.8
2022-11-22T13:24:01.716Z,1.8
2022-11-22T13:25:01.706Z,1.8
2022-11-22T13:26:01.936Z,1.8
2022-11-22T13:27:00.572Z,1.8
2022-11-22T13:28:00.203Z,1.8
2022-11-22T13:28:59.764Z,1.8
2022-11-22T13:30:02.442Z,1.8
2022-11-22T13:31:04.593Z,1.9
2022-11-22T13:32:02.740Z,1.8
2022-11-22T13:33:01.275Z,1.8
2022-11-22T13:34:02.350Z,1.8
2022-11-22T13:35:02.329Z,1.8
2022-11-22T13:36:02.017Z,1.9
2022-11-22T13:37:01.899Z,1.9
2022-11-22T13:38:02.434Z,1.9
2022-11-22T13:39:02.243Z,1.8
2022-11-22T13:40:02.756Z,1.9